sensor_id;sensor_type;location;lat;lon;timestamp;P1;durP1;ratioP1;P2;durP2;ratioP2
32633;SDS011;19043;51.012;5.648;2023-01-13T00:01:43;2.75;;;1.00;;
32633;SDS011;19043;51.012;5.648;2023-01-13T00:04:09;6.40;;;1.63;;
32633;SDS011;19043;51.012;5.648;2023-01-13T00:06:35;9.63;;;1.52;;
32633;SDS011;19043;51.012;5.648;2023-01-13T00:09:00;4.85;;;1.35;;
32633;SDS011;19043;51.012;5.648;2023-01-13T00:11:25;6.13;;;1.67;;
32633;SDS011;19043;51.012;5.648;2023-01-13T00:13:51;3.92;;;1.23;;
32633;SDS011;19043;51.012;5.648;2023-01-13T00:16:17;3.08;;;0.73;;
32633;SDS011;19043;51.012;5.648;2023-01-13T00:18:43;6.18;;;1.55;;
32633;SDS011;19043;51.012;5.648;2023-01-13T00:23:36;6.15;;;1.60;;
32633;SDS011;19043;51.012;5.648;2023-01-13T00:26:03;6.47;;;1.92;;
32633;SDS011;19043;51.012;5.648;2023-01-13T00:28:30;3.40;;;1.17;;
32633;SDS011;19043;51.012;5.648;2023-01-13T00:30:55;4.30;;;1.50;;
32633;SDS011;19043;51.012;5.648;2023-01-13T00:33:22;3.83;;;1.75;;
32633;SDS011;19043;51.012;5.648;2023-01-13T00:35:55;8.63;;;1.92;;
32633;SDS011;19043;51.012;5.648;2023-01-13T00:38:21;15.27;;;2.13;;
32633;SDS011;19043;51.012;5.648;2023-01-13T00:41:00;8.77;;;2.15;;
32633;SDS011;19043;51.012;5.648;2023-01-13T00:43:27;8.05;;;2.30;;
32633;SDS011;19043;51.012;5.648;2023-01-13T00:45:53;5.78;;;1.83;;
32633;SDS011;19043;51.012;5.648;2023-01-13T00:48:19;5.80;;;2.00;;
32633;SDS011;19043;51.012;5.648;2023-01-13T00:50:46;5.93;;;2.13;;
32633;SDS011;19043;51.012;5.648;2023-01-13T00:53:11;6.22;;;2.15;;
32633;SDS011;19043;51.012;5.648;2023-01-13T00:55:38;6.18;;;2.00;;
32633;SDS011;19043;51.012;5.648;2023-01-13T00:58:03;9.23;;;2.75;;
32633;SDS011;19043;51.012;5.648;2023-01-13T01:00:29;11.27;;;2.65;;
32633;SDS011;19043;51.012;5.648;2023-01-13T01:02:55;10.43;;;2.60;;
32633;SDS011;19043;51.012;5.648;2023-01-13T01:05:21;7.63;;;2.20;;
32633;SDS011;19043;51.012;5.648;2023-01-13T01:07:46;7.30;;;2.17;;
32633;SDS011;19043;51.012;5.648;2023-01-13T01:10:11;5.13;;;1.90;;
32633;SDS011;19043;51.012;5.648;2023-01-13T01:12:37;7.28;;;2.28;;
32633;SDS011;19043;51.012;5.648;2023-01-13T01:15:03;14.82;;;2.78;;
32633;SDS011;19043;51.012;5.648;2023-01-13T01:17:31;10.77;;;2.28;;
32633;SDS011;19043;51.012;5.648;2023-01-13T01:19:57;7.63;;;2.38;;
32633;SDS011;19043;51.012;5.648;2023-01-13T01:22:22;6.78;;;2.53;;
32633;SDS011;19043;51.012;5.648;2023-01-13T01:24:47;10.73;;;2.70;;
32633;SDS011;19043;51.012;5.648;2023-01-13T01:27:13;9.00;;;2.60;;
32633;SDS011;19043;51.012;5.648;2023-01-13T01:29:38;9.00;;;2.60;;
32633;SDS011;19043;51.012;5.648;2023-01-13T01:32:03;11.40;;;2.70;;
32633;SDS011;19043;51.012;5.648;2023-01-13T01:34:29;5.57;;;2.38;;
32633;SDS011;19043;51.012;5.648;2023-01-13T01:36:54;11.00;;;2.83;;
32633;SDS011;19043;51.012;5.648;2023-01-13T01:39:20;8.20;;;2.38;;
32633;SDS011;19043;51.012;5.648;2023-01-13T01:41:45;9.95;;;3.08;;
32633;SDS011;19043;51.012;5.648;2023-01-13T01:47:08;13.55;;;3.05;;
32633;SDS011;19043;51.012;5.648;2023-01-13T01:49:38;6.95;;;2.70;;
32633;SDS011;19043;51.012;5.648;2023-01-13T01:52:20;6.60;;;2.63;;
32633;SDS011;19043;51.012;5.648;2023-01-13T01:57:21;6.40;;;2.25;;
32633;SDS011;19043;51.012;5.648;2023-01-13T01:59:48;6.93;;;2.22;;
32633;SDS011;19043;51.012;5.648;2023-01-13T02:02:14;6.03;;;2.15;;
32633;SDS011;19043;51.012;5.648;2023-01-13T02:04:40;8.13;;;2.75;;
32633;SDS011;19043;51.012;5.648;2023-01-13T02:07:15;10.18;;;2.45;;
32633;SDS011;19043;51.012;5.648;2023-01-13T02:09:44;9.35;;;2.30;;
32633;SDS011;19043;51.012;5.648;2023-01-13T02:12:09;9.48;;;2.15;;
32633;SDS011;19043;51.012;5.648;2023-01-13T02:14:53;9.93;;;1.92;;
32633;SDS011;19043;51.012;5.648;2023-01-13T02:30:40;3.77;;;1.73;;
32633;SDS011;19043;51.012;5.648;2023-01-13T02:36:05;10.40;;;2.35;;
32633;SDS011;19043;51.012;5.648;2023-01-13T02:44:50;5.15;;;2.28;;
32633;SDS011;19043;51.012;5.648;2023-01-13T02:47:19;5.75;;;1.98;;
32633;SDS011;19043;51.012;5.648;2023-01-13T02:49:50;14.65;;;3.28;;
32633;SDS011;19043;51.012;5.648;2023-01-13T02:52:27;10.02;;;2.65;;
32633;SDS011;19043;51.012;5.648;2023-01-13T02:54:56;7.88;;;2.30;;
32633;SDS011;19043;51.012;5.648;2023-01-13T02:57:27;10.45;;;2.28;;
32633;SDS011;19043;51.012;5.648;2023-01-13T02:59:53;6.95;;;2.38;;
32633;SDS011;19043;51.012;5.648;2023-01-13T03:02:19;13.38;;;3.13;;
32633;SDS011;19043;51.012;5.648;2023-01-13T03:07:22;12.48;;;2.90;;
32633;SDS011;19043;51.012;5.648;2023-01-13T03:13:07;8.63;;;2.33;;
32633;SDS011;19043;51.012;5.648;2023-01-13T03:18:22;14.27;;;3.20;;
32633;SDS011;19043;51.012;5.648;2023-01-13T03:21:12;10.23;;;3.45;;
32633;SDS011;19043;51.012;5.648;2023-01-13T03:26:30;9.23;;;3.15;;
32633;SDS011;19043;51.012;5.648;2023-01-13T03:29:21;9.85;;;3.38;;
32633;SDS011;19043;51.012;5.648;2023-01-13T03:31:59;13.80;;;3.33;;
32633;SDS011;19043;51.012;5.648;2023-01-13T03:34:43;10.10;;;3.35;;
32633;SDS011;19043;51.012;5.648;2023-01-13T03:37:13;11.85;;;3.65;;
32633;SDS011;19043;51.012;5.648;2023-01-13T03:39:42;13.77;;;2.70;;
32633;SDS011;19043;51.012;5.648;2023-01-13T03:42:16;14.57;;;4.07;;
32633;SDS011;19043;51.012;5.648;2023-01-13T03:44:45;10.25;;;3.58;;
32633;SDS011;19043;51.012;5.648;2023-01-13T03:52:32;17.05;;;3.72;;
32633;SDS011;19043;51.012;5.648;2023-01-13T03:55:04;13.48;;;3.25;;
32633;SDS011;19043;51.012;5.648;2023-01-13T03:57:38;13.73;;;3.83;;
32633;SDS011;19043;51.012;5.648;2023-01-13T04:00:07;15.20;;;3.97;;
32633;SDS011;19043;51.012;5.648;2023-01-13T04:05:16;16.15;;;4.80;;
32633;SDS011;19043;51.012;5.648;2023-01-13T04:10:11;11.57;;;3.55;;
32633;SDS011;19043;51.012;5.648;2023-01-13T04:12:47;9.57;;;3.72;;
32633;SDS011;19043;51.012;5.648;2023-01-13T04:15:26;17.48;;;4.03;;
32633;SDS011;19043;51.012;5.648;2023-01-13T04:18:14;9.00;;;4.07;;
32633;SDS011;19043;51.012;5.648;2023-01-13T04:20:50;13.23;;;4.15;;
32633;SDS011;19043;51.012;5.648;2023-01-13T04:23:17;16.30;;;3.80;;
32633;SDS011;19043;51.012;5.648;2023-01-13T04:25:43;13.40;;;3.45;;
32633;SDS011;19043;51.012;5.648;2023-01-13T04:28:09;10.35;;;4.07;;
32633;SDS011;19043;51.012;5.648;2023-01-13T04:30:35;21.00;;;3.63;;
32633;SDS011;19043;51.012;5.648;2023-01-13T04:33:00;13.73;;;3.80;;
32633;SDS011;19043;51.012;5.648;2023-01-13T04:35:28;17.20;;;4.50;;
32633;SDS011;19043;51.012;5.648;2023-01-13T04:37:53;10.57;;;3.53;;
32633;SDS011;19043;51.012;5.648;2023-01-13T04:40:18;18.23;;;3.85;;
32633;SDS011;19043;51.012;5.648;2023-01-13T04:42:44;14.20;;;3.40;;
32633;SDS011;19043;51.012;5.648;2023-01-13T04:45:09;10.90;;;3.55;;
32633;SDS011;19043;51.012;5.648;2023-01-13T04:47:35;10.27;;;2.97;;
32633;SDS011;19043;51.012;5.648;2023-01-13T04:50:01;12.32;;;3.67;;
32633;SDS011;19043;51.012;5.648;2023-01-13T04:52:26;18.30;;;3.70;;
32633;SDS011;19043;51.012;5.648;2023-01-13T04:54:51;11.35;;;3.78;;
32633;SDS011;19043;51.012;5.648;2023-01-13T04:57:17;9.55;;;3.25;;
32633;SDS011;19043;51.012;5.648;2023-01-13T04:59:42;17.55;;;3.35;;
32633;SDS011;19043;51.012;5.648;2023-01-13T05:02:08;10.80;;;3.38;;
32633;SDS011;19043;51.012;5.648;2023-01-13T05:04:33;7.78;;;3.00;;
32633;SDS011;19043;51.012;5.648;2023-01-13T05:06:59;10.38;;;3.10;;
32633;SDS011;19043;51.012;5.648;2023-01-13T05:09:25;10.50;;;3.03;;
32633;SDS011;19043;51.012;5.648;2023-01-13T05:11:50;10.18;;;3.28;;
32633;SDS011;19043;51.012;5.648;2023-01-13T05:14:34;8.27;;;2.58;;
32633;SDS011;19043;51.012;5.648;2023-01-13T05:17:19;12.75;;;3.78;;
32633;SDS011;19043;51.012;5.648;2023-01-13T05:19:46;15.05;;;4.30;;
32633;SDS011;19043;51.012;5.648;2023-01-13T05:22:12;9.77;;;4.57;;
32633;SDS011;19043;51.012;5.648;2023-01-13T05:24:56;18.13;;;4.43;;
32633;SDS011;19043;51.012;5.648;2023-01-13T05:27:40;8.02;;;3.22;;
32633;SDS011;19043;51.012;5.648;2023-01-13T05:30:05;11.07;;;3.55;;
32633;SDS011;19043;51.012;5.648;2023-01-13T05:32:31;9.77;;;3.05;;
32633;SDS011;19043;51.012;5.648;2023-01-13T05:34:56;13.02;;;2.78;;
32633;SDS011;19043;51.012;5.648;2023-01-13T05:37:22;10.80;;;3.20;;
32633;SDS011;19043;51.012;5.648;2023-01-13T05:39:48;9.63;;;3.55;;
32633;SDS011;19043;51.012;5.648;2023-01-13T05:42:32;13.95;;;3.08;;
32633;SDS011;19043;51.012;5.648;2023-01-13T05:45:16;11.65;;;3.25;;
32633;SDS011;19043;51.012;5.648;2023-01-13T05:47:41;12.88;;;3.15;;
32633;SDS011;19043;51.012;5.648;2023-01-13T05:50:07;11.25;;;3.50;;
32633;SDS011;19043;51.012;5.648;2023-01-13T05:52:33;7.60;;;2.95;;
32633;SDS011;19043;51.012;5.648;2023-01-13T05:54:58;9.10;;;2.75;;
32633;SDS011;19043;51.012;5.648;2023-01-13T05:57:24;9.63;;;2.88;;
32633;SDS011;19043;51.012;5.648;2023-01-13T05:59:49;8.07;;;3.50;;
32633;SDS011;19043;51.012;5.648;2023-01-13T06:02:14;10.32;;;3.35;;
32633;SDS011;19043;51.012;5.648;2023-01-13T06:04:40;9.40;;;2.53;;
32633;SDS011;19043;51.012;5.648;2023-01-13T06:07:05;9.13;;;3.25;;
32633;SDS011;19043;51.012;5.648;2023-01-13T06:09:31;7.55;;;2.85;;
32633;SDS011;19043;51.012;5.648;2023-01-13T06:11:56;7.30;;;3.15;;
32633;SDS011;19043;51.012;5.648;2023-01-13T06:14:21;6.68;;;2.35;;
32633;SDS011;19043;51.012;5.648;2023-01-13T06:16:47;17.98;;;2.55;;
32633;SDS011;19043;51.012;5.648;2023-01-13T06:19:12;10.70;;;4.07;;
32633;SDS011;19043;51.012;5.648;2023-01-13T06:21:38;13.90;;;5.07;;
32633;SDS011;19043;51.012;5.648;2023-01-13T06:24:04;14.63;;;3.97;;
32633;SDS011;19043;51.012;5.648;2023-01-13T06:26:37;9.82;;;3.60;;
32633;SDS011;19043;51.012;5.648;2023-01-13T06:31:30;14.00;;;3.45;;
32633;SDS011;19043;51.012;5.648;2023-01-13T06:33:57;9.50;;;2.80;;
32633;SDS011;19043;51.012;5.648;2023-01-13T06:36:26;9.98;;;3.50;;
32633;SDS011;19043;51.012;5.648;2023-01-13T06:38:55;8.57;;;2.92;;
32633;SDS011;19043;51.012;5.648;2023-01-13T06:41:22;13.50;;;3.30;;
32633;SDS011;19043;51.012;5.648;2023-01-13T06:44:07;15.93;;;3.95;;
32633;SDS011;19043;51.012;5.648;2023-01-13T06:46:33;11.95;;;2.67;;
32633;SDS011;19043;51.012;5.648;2023-01-13T06:48:59;14.10;;;3.13;;
32633;SDS011;19043;51.012;5.648;2023-01-13T06:51:25;10.98;;;2.67;;
32633;SDS011;19043;51.012;5.648;2023-01-13T06:53:50;13.43;;;2.63;;
32633;SDS011;19043;51.012;5.648;2023-01-13T06:56:15;13.02;;;3.65;;
32633;SDS011;19043;51.012;5.648;2023-01-13T06:58:41;6.78;;;2.55;;
32633;SDS011;19043;51.012;5.648;2023-01-13T07:01:07;11.70;;;3.33;;
32633;SDS011;19043;51.012;5.648;2023-01-13T07:03:32;8.45;;;2.53;;
32633;SDS011;19043;51.012;5.648;2023-01-13T07:05:57;7.85;;;2.75;;
32633;SDS011;19043;51.012;5.648;2023-01-13T07:08:23;9.05;;;2.65;;
32633;SDS011;19043;51.012;5.648;2023-01-13T07:10:49;8.98;;;3.15;;
32633;SDS011;19043;51.012;5.648;2023-01-13T07:13:15;8.82;;;2.90;;
32633;SDS011;19043;51.012;5.648;2023-01-13T07:15:59;5.40;;;2.80;;
32633;SDS011;19043;51.012;5.648;2023-01-13T07:18:27;9.20;;;2.97;;
32633;SDS011;19043;51.012;5.648;2023-01-13T07:20:56;11.18;;;2.80;;
32633;SDS011;19043;51.012;5.648;2023-01-13T07:23:22;5.32;;;2.17;;
32633;SDS011;19043;51.012;5.648;2023-01-13T07:25:49;7.55;;;2.72;;
32633;SDS011;19043;51.012;5.648;2023-01-13T07:28:14;12.82;;;3.38;;
32633;SDS011;19043;51.012;5.648;2023-01-13T07:30:40;13.50;;;3.75;;
32633;SDS011;19043;51.012;5.648;2023-01-13T07:33:05;9.98;;;3.65;;
32633;SDS011;19043;51.012;5.648;2023-01-13T07:35:30;7.57;;;2.83;;
32633;SDS011;19043;51.012;5.648;2023-01-13T07:37:56;11.82;;;3.97;;
32633;SDS011;19043;51.012;5.648;2023-01-13T07:40:21;10.65;;;3.08;;
32633;SDS011;19043;51.012;5.648;2023-01-13T07:42:46;12.00;;;4.00;;
32633;SDS011;19043;51.012;5.648;2023-01-13T07:45:30;22.23;;;4.30;;
32633;SDS011;19043;51.012;5.648;2023-01-13T07:47:56;15.00;;;4.07;;
32633;SDS011;19043;51.012;5.648;2023-01-13T07:50:21;13.27;;;4.32;;
32633;SDS011;19043;51.012;5.648;2023-01-13T07:52:47;13.02;;;4.35;;
32633;SDS011;19043;51.012;5.648;2023-01-13T07:55:13;18.45;;;4.97;;
32633;SDS011;19043;51.012;5.648;2023-01-13T07:57:39;15.15;;;4.65;;
32633;SDS011;19043;51.012;5.648;2023-01-13T08:00:04;19.08;;;4.22;;
32633;SDS011;19043;51.012;5.648;2023-01-13T08:02:30;15.65;;;3.83;;
32633;SDS011;19043;51.012;5.648;2023-01-13T08:04:56;14.13;;;5.10;;
32633;SDS011;19043;51.012;5.648;2023-01-13T08:07:21;14.60;;;4.60;;
32633;SDS011;19043;51.012;5.648;2023-01-13T08:09:47;8.90;;;3.78;;
32633;SDS011;19043;51.012;5.648;2023-01-13T08:12:12;14.15;;;4.85;;
32633;SDS011;19043;51.012;5.648;2023-01-13T08:14:56;16.67;;;5.38;;
32633;SDS011;19043;51.012;5.648;2023-01-13T08:17:21;20.15;;;4.47;;
32633;SDS011;19043;51.012;5.648;2023-01-13T08:19:47;18.83;;;4.78;;
32633;SDS011;19043;51.012;5.648;2023-01-13T08:22:12;13.85;;;4.45;;
32633;SDS011;19043;51.012;5.648;2023-01-13T08:24:38;17.38;;;4.68;;
32633;SDS011;19043;51.012;5.648;2023-01-13T08:27:03;14.85;;;4.95;;
32633;SDS011;19043;51.012;5.648;2023-01-13T08:29:29;17.30;;;4.43;;
32633;SDS011;19043;51.012;5.648;2023-01-13T08:31:54;11.57;;;3.67;;
32633;SDS011;19043;51.012;5.648;2023-01-13T08:34:19;17.55;;;4.63;;
32633;SDS011;19043;51.012;5.648;2023-01-13T08:36:47;12.40;;;4.45;;
32633;SDS011;19043;51.012;5.648;2023-01-13T08:39:13;14.93;;;4.97;;
32633;SDS011;19043;51.012;5.648;2023-01-13T08:41:38;18.15;;;5.63;;
32633;SDS011;19043;51.012;5.648;2023-01-13T08:44:19;23.10;;;4.55;;
32633;SDS011;19043;51.012;5.648;2023-01-13T08:46:45;17.88;;;4.60;;
32633;SDS011;19043;51.012;5.648;2023-01-13T08:49:10;11.45;;;4.78;;
32633;SDS011;19043;51.012;5.648;2023-01-13T08:51:36;11.05;;;4.38;;
32633;SDS011;19043;51.012;5.648;2023-01-13T08:54:01;13.35;;;5.40;;
32633;SDS011;19043;51.012;5.648;2023-01-13T08:56:30;24.38;;;5.05;;
32633;SDS011;19043;51.012;5.648;2023-01-13T08:58:59;14.05;;;4.45;;
32633;SDS011;19043;51.012;5.648;2023-01-13T09:01:25;29.17;;;5.30;;
32633;SDS011;19043;51.012;5.648;2023-01-13T09:03:50;14.77;;;4.70;;
32633;SDS011;19043;51.012;5.648;2023-01-13T09:06:16;13.43;;;4.70;;
32633;SDS011;19043;51.012;5.648;2023-01-13T09:08:41;28.30;;;6.28;;
32633;SDS011;19043;51.012;5.648;2023-01-13T09:11:17;12.27;;;4.78;;
32633;SDS011;19043;51.012;5.648;2023-01-13T09:14:02;20.27;;;5.20;;
32633;SDS011;19043;51.012;5.648;2023-01-13T09:16:28;14.98;;;4.63;;
32633;SDS011;19043;51.012;5.648;2023-01-13T09:18:53;15.02;;;4.15;;
32633;SDS011;19043;51.012;5.648;2023-01-13T09:21:18;15.80;;;4.45;;
32633;SDS011;19043;51.012;5.648;2023-01-13T09:23:45;17.52;;;4.50;;
32633;SDS011;19043;51.012;5.648;2023-01-13T09:26:18;18.27;;;5.43;;
32633;SDS011;19043;51.012;5.648;2023-01-13T09:31:10;18.70;;;5.40;;
32633;SDS011;19043;51.012;5.648;2023-01-13T09:33:35;19.50;;;6.10;;
32633;SDS011;19043;51.012;5.648;2023-01-13T09:36:19;15.17;;;4.27;;
32633;SDS011;19043;51.012;5.648;2023-01-13T09:38:45;20.98;;;5.05;;
32633;SDS011;19043;51.012;5.648;2023-01-13T09:41:18;19.20;;;4.72;;
32633;SDS011;19043;51.012;5.648;2023-01-13T09:44:02;16.05;;;5.13;;
32633;SDS011;19043;51.012;5.648;2023-01-13T09:46:39;13.27;;;4.57;;
32633;SDS011;19043;51.012;5.648;2023-01-13T09:49:25;13.20;;;3.92;;
32633;SDS011;19043;51.012;5.648;2023-01-13T09:51:54;13.73;;;4.47;;
32633;SDS011;19043;51.012;5.648;2023-01-13T09:54:39;11.40;;;4.35;;
32633;SDS011;19043;51.012;5.648;2023-01-13T09:57:20;20.80;;;5.07;;
32633;SDS011;19043;51.012;5.648;2023-01-13T09:59:46;24.98;;;5.18;;
32633;SDS011;19043;51.012;5.648;2023-01-13T10:05:18;19.13;;;5.63;;
32633;SDS011;19043;51.012;5.648;2023-01-13T10:07:57;12.05;;;4.53;;
32633;SDS011;19043;51.012;5.648;2023-01-13T10:10:45;19.60;;;5.47;;
32633;SDS011;19043;51.012;5.648;2023-01-13T10:13:31;25.73;;;5.95;;
32633;SDS011;19043;51.012;5.648;2023-01-13T10:24:28;14.85;;;5.10;;
32633;SDS011;19043;51.012;5.648;2023-01-13T10:27:23;14.77;;;5.43;;
32633;SDS011;19043;51.012;5.648;2023-01-13T10:29:54;19.70;;;5.65;;
32633;SDS011;19043;51.012;5.648;2023-01-13T10:32:19;17.02;;;5.55;;
32633;SDS011;19043;51.012;5.648;2023-01-13T10:34:48;25.40;;;5.50;;
32633;SDS011;19043;51.012;5.648;2023-01-13T10:37:22;15.55;;;5.45;;
32633;SDS011;19043;51.012;5.648;2023-01-13T10:39:50;12.75;;;4.32;;
32633;SDS011;19043;51.012;5.648;2023-01-13T10:42:19;16.15;;;5.13;;
32633;SDS011;19043;51.012;5.648;2023-01-13T10:44:50;22.00;;;5.30;;
32633;SDS011;19043;51.012;5.648;2023-01-13T10:47:31;36.60;;;5.47;;
32633;SDS011;19043;51.012;5.648;2023-01-13T10:52:37;12.65;;;4.82;;
32633;SDS011;19043;51.012;5.648;2023-01-13T10:58:10;12.68;;;4.78;;
32633;SDS011;19043;51.012;5.648;2023-01-13T11:00:42;17.52;;;5.80;;
32633;SDS011;19043;51.012;5.648;2023-01-13T11:03:17;14.25;;;5.63;;
32633;SDS011;19043;51.012;5.648;2023-01-13T11:08:22;13.63;;;4.35;;
32633;SDS011;19043;51.012;5.648;2023-01-13T11:10:54;15.77;;;5.07;;
32633;SDS011;19043;51.012;5.648;2023-01-13T11:13:24;21.00;;;6.13;;
32633;SDS011;19043;51.012;5.648;2023-01-13T11:15:54;20.73;;;4.95;;
32633;SDS011;19043;51.012;5.648;2023-01-13T11:22:22;15.30;;;5.82;;
32633;SDS011;19043;51.012;5.648;2023-01-13T11:32:22;15.30;;;5.03;;
32633;SDS011;19043;51.012;5.648;2023-01-13T11:34:49;15.23;;;4.88;;
32633;SDS011;19043;51.012;5.648;2023-01-13T11:37:28;22.30;;;5.53;;
32633;SDS011;19043;51.012;5.648;2023-01-13T11:47:59;13.80;;;4.57;;
32633;SDS011;19043;51.012;5.648;2023-01-13T11:50:33;11.98;;;4.40;;
32633;SDS011;19043;51.012;5.648;2023-01-13T11:53:03;26.45;;;4.72;;
32633;SDS011;19043;51.012;5.648;2023-01-13T11:58:17;19.13;;;4.85;;
32633;SDS011;19043;51.012;5.648;2023-01-13T12:03:32;14.73;;;5.25;;
32633;SDS011;19043;51.012;5.648;2023-01-13T12:11:32;19.58;;;5.68;;
32633;SDS011;19043;51.012;5.648;2023-01-13T12:20:35;17.15;;;5.28;;
32633;SDS011;19043;51.012;5.648;2023-01-13T12:23:03;15.80;;;4.95;;
32633;SDS011;19043;51.012;5.648;2023-01-13T12:25:44;18.10;;;4.30;;
32633;SDS011;19043;51.012;5.648;2023-01-13T12:28:13;14.60;;;4.15;;
32633;SDS011;19043;51.012;5.648;2023-01-13T12:30:54;13.95;;;4.15;;
32633;SDS011;19043;51.012;5.648;2023-01-13T12:33:36;13.88;;;5.13;;
32633;SDS011;19043;51.012;5.648;2023-01-13T12:36:19;11.93;;;4.75;;
32633;SDS011;19043;51.012;5.648;2023-01-13T12:38:51;10.57;;;3.92;;
32633;SDS011;19043;51.012;5.648;2023-01-13T12:41:43;15.88;;;4.97;;
32633;SDS011;19043;51.012;5.648;2023-01-13T12:50:27;15.35;;;4.68;;
32633;SDS011;19043;51.012;5.648;2023-01-13T12:52:47;20.60;;;4.88;;
32633;SDS011;19043;51.012;5.648;2023-01-13T12:55:13;15.73;;;4.43;;
32633;SDS011;19043;51.012;5.648;2023-01-13T12:57:53;12.90;;;4.97;;
32633;SDS011;19043;51.012;5.648;2023-01-13T13:00:19;15.32;;;5.15;;
32633;SDS011;19043;51.012;5.648;2023-01-13T13:11:21;14.45;;;5.32;;
32633;SDS011;19043;51.012;5.648;2023-01-13T13:19:44;14.07;;;4.97;;
32633;SDS011;19043;51.012;5.648;2023-01-13T13:24:36;30.25;;;5.45;;
32633;SDS011;19043;51.012;5.648;2023-01-13T13:29:52;17.58;;;6.07;;
32633;SDS011;19043;51.012;5.648;2023-01-13T13:38:55;25.35;;;5.75;;
32633;SDS011;19043;51.012;5.648;2023-01-13T13:41:45;20.15;;;5.88;;
32633;SDS011;19043;51.012;5.648;2023-01-13T13:44:44;21.60;;;6.55;;
32633;SDS011;19043;51.012;5.648;2023-01-13T13:47:36;29.17;;;6.60;;
32633;SDS011;19043;51.012;5.648;2023-01-13T13:50:15;22.30;;;6.82;;
32633;SDS011;19043;51.012;5.648;2023-01-13T13:52:49;16.40;;;6.32;;
32633;SDS011;19043;51.012;5.648;2023-01-13T13:55:23;21.70;;;7.18;;
32633;SDS011;19043;51.012;5.648;2023-01-13T13:57:51;24.02;;;7.07;;
32633;SDS011;19043;51.012;5.648;2023-01-13T14:00:19;24.05;;;6.18;;
32633;SDS011;19043;51.012;5.648;2023-01-13T14:02:46;14.88;;;5.75;;
32633;SDS011;19043;51.012;5.648;2023-01-13T14:05:18;29.75;;;7.00;;
32633;SDS011;19043;51.012;5.648;2023-01-13T14:07:45;13.50;;;6.20;;
32633;SDS011;19043;51.012;5.648;2023-01-13T14:10:23;17.08;;;5.90;;
32633;SDS011;19043;51.012;5.648;2023-01-13T14:12:49;24.23;;;5.93;;
32633;SDS011;19043;51.012;5.648;2023-01-13T14:18:20;22.08;;;6.47;;
32633;SDS011;19043;51.012;5.648;2023-01-13T14:20:52;33.65;;;6.82;;
32633;SDS011;19043;51.012;5.648;2023-01-13T14:23:28;19.05;;;7.38;;
32633;SDS011;19043;51.012;5.648;2023-01-13T14:26:00;23.40;;;6.63;;
32633;SDS011;19043;51.012;5.648;2023-01-13T14:28:28;24.13;;;6.82;;
32633;SDS011;19043;51.012;5.648;2023-01-13T14:30:56;29.80;;;6.38;;
32633;SDS011;19043;51.012;5.648;2023-01-13T14:33:23;22.23;;;6.40;;
32633;SDS011;19043;51.012;5.648;2023-01-13T14:39:32;23.63;;;5.53;;
32633;SDS011;19043;51.012;5.648;2023-01-13T14:41:32;21.17;;;5.75;;
32633;SDS011;19043;51.012;5.648;2023-01-13T14:43:59;23.25;;;6.22;;
32633;SDS011;19043;51.012;5.648;2023-01-13T14:46:36;18.35;;;6.28;;
32633;SDS011;19043;51.012;5.648;2023-01-13T14:49:03;25.40;;;6.68;;
32633;SDS011;19043;51.012;5.648;2023-01-13T14:51:28;17.58;;;5.30;;
32633;SDS011;19043;51.012;5.648;2023-01-13T14:53:54;23.17;;;6.30;;
32633;SDS011;19043;51.012;5.648;2023-01-13T15:01:59;26.98;;;7.10;;
32633;SDS011;19043;51.012;5.648;2023-01-13T15:04:26;20.88;;;7.35;;
32633;SDS011;19043;51.012;5.648;2023-01-13T15:06:56;19.40;;;7.57;;
32633;SDS011;19043;51.012;5.648;2023-01-13T15:09:26;27.23;;;7.30;;
32633;SDS011;19043;51.012;5.648;2023-01-13T15:11:53;15.40;;;6.10;;
32633;SDS011;19043;51.012;5.648;2023-01-13T15:14:24;23.80;;;7.60;;
32633;SDS011;19043;51.012;5.648;2023-01-13T15:16:51;26.17;;;6.88;;
32633;SDS011;19043;51.012;5.648;2023-01-13T15:19:16;24.88;;;7.47;;
32633;SDS011;19043;51.012;5.648;2023-01-13T15:21:41;24.40;;;7.50;;
32633;SDS011;19043;51.012;5.648;2023-01-13T15:24:07;21.98;;;6.63;;
32633;SDS011;19043;51.012;5.648;2023-01-13T15:26:32;24.27;;;7.47;;
32633;SDS011;19043;51.012;5.648;2023-01-13T15:28:59;18.83;;;7.65;;
32633;SDS011;19043;51.012;5.648;2023-01-13T15:31:25;25.98;;;6.75;;
32633;SDS011;19043;51.012;5.648;2023-01-13T15:33:51;20.75;;;7.18;;
32633;SDS011;19043;51.012;5.648;2023-01-13T15:36:26;24.23;;;7.30;;
32633;SDS011;19043;51.012;5.648;2023-01-13T15:38:53;26.08;;;7.85;;
32633;SDS011;19043;51.012;5.648;2023-01-13T15:41:19;21.10;;;6.10;;
32633;SDS011;19043;51.012;5.648;2023-01-13T15:44:05;26.05;;;6.57;;
32633;SDS011;19043;51.012;5.648;2023-01-13T15:46:49;19.48;;;6.05;;
32633;SDS011;19043;51.012;5.648;2023-01-13T15:49:28;23.95;;;6.38;;
32633;SDS011;19043;51.012;5.648;2023-01-13T15:51:59;27.38;;;5.38;;
32633;SDS011;19043;51.012;5.648;2023-01-13T15:54:28;22.63;;;6.03;;
32633;SDS011;19043;51.012;5.648;2023-01-13T15:56:54;19.33;;;5.95;;
32633;SDS011;19043;51.012;5.648;2023-01-13T15:59:21;19.42;;;5.45;;
32633;SDS011;19043;51.012;5.648;2023-01-13T16:01:48;13.73;;;4.45;;
32633;SDS011;19043;51.012;5.648;2023-01-13T16:04:14;18.27;;;4.90;;
32633;SDS011;19043;51.012;5.648;2023-01-13T16:06:39;23.92;;;10.68;;
32633;SDS011;19043;51.012;5.648;2023-01-13T16:09:05;22.17;;;3.78;;
32633;SDS011;19043;51.012;5.648;2023-01-13T16:11:30;16.35;;;5.50;;
32633;SDS011;19043;51.012;5.648;2023-01-13T16:13:56;12.85;;;5.05;;
32633;SDS011;19043;51.012;5.648;2023-01-13T16:16:23;13.90;;;5.38;;
32633;SDS011;19043;51.012;5.648;2023-01-13T16:18:49;15.13;;;5.53;;
32633;SDS011;19043;51.012;5.648;2023-01-13T16:21:15;19.63;;;5.40;;
32633;SDS011;19043;51.012;5.648;2023-01-13T16:23:43;13.48;;;5.70;;
32633;SDS011;19043;51.012;5.648;2023-01-13T16:26:25;21.55;;;4.78;;
32633;SDS011;19043;51.012;5.648;2023-01-13T16:28:52;22.17;;;5.50;;
32633;SDS011;19043;51.012;5.648;2023-01-13T16:31:22;12.23;;;4.60;;
32633;SDS011;19043;51.012;5.648;2023-01-13T16:33:53;21.75;;;5.10;;
32633;SDS011;19043;51.012;5.648;2023-01-13T16:36:19;22.48;;;4.75;;
32633;SDS011;19043;51.012;5.648;2023-01-13T16:38:45;16.73;;;4.30;;
32633;SDS011;19043;51.012;5.648;2023-01-13T16:41:11;14.45;;;4.75;;
32633;SDS011;19043;51.012;5.648;2023-01-13T16:43:37;20.85;;;5.20;;
32633;SDS011;19043;51.012;5.648;2023-01-13T16:48:47;16.55;;;5.18;;
32633;SDS011;19043;51.012;5.648;2023-01-13T16:51:12;13.77;;;5.95;;
32633;SDS011;19043;51.012;5.648;2023-01-13T16:53:38;14.25;;;5.50;;
32633;SDS011;19043;51.012;5.648;2023-01-13T16:56:09;13.98;;;6.20;;
32633;SDS011;19043;51.012;5.648;2023-01-13T16:58:41;14.60;;;4.85;;
32633;SDS011;19043;51.012;5.648;2023-01-13T17:01:10;20.13;;;5.43;;
32633;SDS011;19043;51.012;5.648;2023-01-13T17:03:50;11.48;;;4.82;;
32633;SDS011;19043;51.012;5.648;2023-01-13T17:09:04;17.30;;;4.32;;
32633;SDS011;19043;51.012;5.648;2023-01-13T17:11:30;18.60;;;4.72;;
32633;SDS011;19043;51.012;5.648;2023-01-13T17:13:56;23.35;;;4.75;;
32633;SDS011;19043;51.012;5.648;2023-01-13T17:16:22;17.77;;;4.28;;
32633;SDS011;19043;51.012;5.648;2023-01-13T17:18:49;20.27;;;4.40;;
32633;SDS011;19043;51.012;5.648;2023-01-13T17:21:15;12.25;;;4.72;;
32633;SDS011;19043;51.012;5.648;2023-01-13T17:23:41;11.35;;;3.97;;
32633;SDS011;19043;51.012;5.648;2023-01-13T17:26:06;10.10;;;4.32;;
32633;SDS011;19043;51.012;5.648;2023-01-13T17:28:32;15.23;;;4.25;;
32633;SDS011;19043;51.012;5.648;2023-01-13T17:30:57;20.27;;;4.63;;
32633;SDS011;19043;51.012;5.648;2023-01-13T17:33:23;12.13;;;4.07;;
32633;SDS011;19043;51.012;5.648;2023-01-13T17:35:48;14.13;;;4.15;;